Terminal Aerodrome Forecast
Issued by NWS

Home | Current Version | Previous Version | Text Only | Print | Product List | Glossary On
Versions: 1 2 3 4 5 6 7 8 9 10 11 12 13 14 15 16 17 18 19
000
FTUS43 KICT 262324
TAFCNU
TAF
KCNU 262324Z 2700/2724 17015G22KT P6SM VCTS SCT035CB BKN080
     FM270900 15010KT P6SM VCSH OVC015
     FM271900 17013G21KT P6SM VCTS BKN030CB=

USA.gov is the U.S. government's official web portal to all federal, state and local government web resources and services.